createdAt,value
2019-04-25T00:01:08.024Z,2.63
2019-04-25T00:03:36.706Z,2.40
2019-04-25T00:06:02.871Z,1.90
2019-04-25T00:08:28.990Z,1.30
2019-04-25T00:10:55.000Z,1.60
2019-04-25T00:13:21.768Z,1.53
2019-04-25T00:15:48.116Z,1.40
2019-04-25T00:18:14.620Z,1.03
2019-04-25T00:20:43.606Z,1.43
2019-04-25T00:23:15.389Z,1.20
2019-04-25T00:25:45.854Z,1.33
2019-04-25T00:28:11.649Z,0.90
2019-04-25T00:30:38.451Z,0.70
2019-04-25T00:33:04.746Z,0.90
2019-04-25T00:35:31.853Z,0.97
2019-04-25T00:37:57.879Z,0.90
2019-04-25T00:40:23.892Z,0.70
2019-04-25T00:42:50.663Z,0.60
2019-04-25T00:45:17.919Z,0.73
2019-04-25T00:47:44.707Z,0.73
2019-04-25T00:50:12.007Z,0.50
2019-04-25T00:52:38.230Z,0.90
2019-04-25T00:55:04.435Z,0.90
2019-04-25T00:57:31.992Z,0.97
2019-04-25T01:00:01.870Z,0.70
2019-04-25T01:02:38.803Z,1.00
2019-04-25T01:05:06.083Z,1.00
2019-04-25T01:07:34.300Z,0.80
2019-04-25T01:10:00.007Z,0.70
2019-04-25T01:12:26.438Z,1.07
2019-04-25T01:14:53.632Z,1.30
2019-04-25T01:17:21.181Z,1.13
2019-04-25T01:19:47.873Z,1.20
2019-04-25T01:22:14.509Z,1.00
2019-04-25T01:24:40.579Z,1.40
2019-04-25T01:27:07.216Z,1.37
2019-04-25T01:29:33.526Z,1.20
2019-04-25T01:31:59.939Z,1.23
2019-04-25T01:34:27.915Z,1.10
2019-04-25T01:36:58.863Z,1.07
2019-04-25T01:39:36.071Z,1.30
2019-04-25T01:42:07.341Z,1.30
2019-04-25T01:44:35.298Z,1.40
2019-04-25T01:47:01.434Z,1.60
2019-04-25T01:49:29.351Z,1.33
2019-04-25T01:51:57.401Z,1.10
2019-04-25T01:54:23.832Z,1.33
2019-04-25T01:56:50.825Z,1.23
2019-04-25T01:59:17.071Z,2.20
2019-04-25T02:01:44.048Z,1.23
2019-04-25T02:04:10.365Z,2.13
2019-04-25T02:06:36.464Z,1.27
2019-04-25T02:09:06.992Z,1.73
2019-04-25T02:11:52.454Z,2.10
2019-04-25T02:14:20.101Z,2.30
2019-04-25T02:16:46.211Z,2.87
2019-04-25T02:19:12.222Z,3.00
2019-04-25T02:21:38.425Z,4.13
2019-04-25T02:24:05.693Z,4.20
2019-04-25T02:26:31.922Z,4.93
2019-04-25T02:28:58.418Z,5.23
2019-04-25T02:31:24.737Z,5.00
2019-04-25T02:33:50.978Z,5.67
2019-04-25T02:36:17.010Z,6.90
2019-04-25T02:38:44.187Z,5.93
2019-04-25T02:41:10.436Z,8.83
2019-04-25T02:43:37.111Z,7.57
2019-04-25T02:46:08.885Z,7.80
2019-04-25T02:48:46.328Z,8.20
2019-04-25T02:51:17.079Z,8.77
2019-04-25T02:53:47.835Z,8.77
2019-04-25T02:56:29.919Z,8.07
2019-04-25T02:58:44.167Z,8.93
2019-04-25T03:01:21.282Z,8.87
2019-04-25T03:03:41.422Z,9.37
2019-04-25T03:06:09.292Z,8.83
2019-04-25T03:08:35.695Z,9.23
2019-04-25T03:11:04.702Z,9.30
2019-04-25T03:13:30.244Z,9.30
2019-04-25T03:15:56.271Z,8.47
2019-04-25T03:18:24.869Z,9.00
2019-04-25T03:21:03.008Z,9.47
2019-04-25T03:23:31.503Z,7.67
2019-04-25T03:25:59.219Z,8.87
2019-04-25T03:28:25.335Z,7.73
2019-04-25T03:30:54.941Z,8.63
2019-04-25T03:33:20.581Z,7.93
2019-04-25T03:35:46.596Z,9.00
2019-04-25T03:38:13.065Z,8.07
2019-04-25T03:40:40.435Z,8.60
2019-04-25T03:43:07.080Z,8.90
2019-04-25T03:45:33.335Z,7.90
2019-04-25T03:47:59.543Z,7.43
2019-04-25T03:50:25.555Z,9.13
2019-04-25T03:52:51.675Z,10.07
2019-04-25T03:55:17.725Z,8.70
2019-04-25T03:57:45.588Z,8.40
2019-04-25T04:00:14.511Z,9.40
2019-04-25T04:02:40.683Z,8.07
2019-04-25T04:05:07.275Z,9.00
2019-04-25T04:07:35.225Z,8.07
2019-04-25T04:10:03.544Z,8.50
2019-04-25T04:12:29.795Z,9.33
2019-04-25T04:14:56.712Z,13.77
2019-04-25T04:17:27.495Z,9.60
2019-04-25T04:20:01.412Z,8.90
2019-04-25T04:22:29.331Z,9.67
2019-04-25T04:24:57.255Z,10.00
2019-04-25T04:27:23.974Z,11.10
2019-04-25T04:29:50.101Z,10.97
2019-04-25T04:32:17.264Z,10.57
2019-04-25T04:34:45.526Z,10.03
2019-04-25T04:37:11.749Z,10.13
2019-04-25T04:39:38.055Z,10.63
2019-04-25T04:42:04.126Z,22.43
2019-04-25T04:44:30.214Z,13.90
2019-04-25T04:46:56.248Z,8.80
2019-04-25T04:49:23.516Z,9.80
2019-04-25T04:51:50.003Z,19.43
2019-04-25T04:54:17.629Z,15.00
2019-04-25T04:56:44.855Z,11.00
2019-04-25T04:59:14.218Z,10.20
2019-04-25T05:01:58.209Z,8.90
2019-04-25T05:04:28.666Z,8.50
2019-04-25T05:06:59.136Z,9.00
2019-04-25T05:09:26.212Z,8.77
2019-04-25T05:11:53.949Z,9.43
2019-04-25T05:14:20.108Z,10.60
2019-04-25T05:16:49.469Z,10.10
2019-04-25T05:19:15.617Z,9.70
2019-04-25T05:21:43.557Z,9.87
2019-04-25T05:24:10.710Z,10.03
2019-04-25T05:26:36.735Z,9.57
2019-04-25T05:29:03.626Z,9.40
2019-04-25T05:31:34.859Z,9.83
2019-04-25T05:34:00.879Z,8.40
2019-04-25T05:36:28.803Z,9.20
2019-04-25T05:38:54.846Z,8.30
2019-04-25T05:41:31.427Z,8.57
2019-04-25T05:43:57.500Z,33.13
2019-04-25T05:46:25.171Z,9.37
2019-04-25T05:48:51.438Z,9.37
2019-04-25T05:51:17.705Z,6.17
2019-04-25T05:53:43.735Z,6.50
2019-04-25T05:56:09.818Z,5.97
2019-04-25T05:58:36.175Z,6.10
2019-04-25T06:01:03.357Z,5.40
2019-04-25T06:03:29.595Z,5.00
2019-04-25T06:05:55.647Z,5.60
2019-04-25T06:08:25.498Z,5.23
2019-04-25T06:10:55.996Z,5.40
2019-04-25T06:13:29.947Z,5.17
2019-04-25T06:15:57.875Z,5.37
2019-04-25T06:18:26.019Z,4.50
2019-04-25T06:20:54.279Z,5.00
2019-04-25T06:23:24.573Z,4.93
2019-04-25T06:25:50.995Z,4.73
2019-04-25T06:28:19.459Z,4.70
2019-04-25T06:30:46.355Z,4.43
2019-04-25T06:33:13.345Z,4.13
2019-04-25T06:35:39.634Z,4.40
2019-04-25T06:38:05.648Z,4.23
2019-04-25T06:40:32.453Z,5.03
2019-04-25T06:42:59.011Z,4.23
2019-04-25T06:45:38.719Z,4.57
2019-04-25T06:48:07.120Z,4.07
2019-04-25T06:50:34.122Z,4.40
2019-04-25T06:53:01.395Z,3.73
2019-04-25T06:55:28.410Z,4.00
2019-04-25T06:57:54.689Z,3.57
2019-04-25T07:00:22.435Z,3.70
2019-04-25T07:02:49.379Z,3.67
2019-04-25T07:05:26.729Z,3.23
2019-04-25T07:07:45.284Z,3.40
2019-04-25T07:10:13.250Z,3.00
2019-04-25T07:12:39.488Z,3.60
2019-04-25T07:15:08.716Z,3.37
2019-04-25T07:17:35.984Z,2.70
2019-04-25T07:20:04.819Z,3.70
2019-04-25T07:22:30.821Z,2.73
2019-04-25T07:24:56.879Z,2.80
2019-04-25T07:27:28.343Z,3.90
2019-04-25T07:29:56.474Z,3.20
2019-04-25T07:32:31.197Z,3.13
2019-04-25T07:34:57.381Z,2.53
2019-04-25T07:37:24.228Z,3.40
2019-04-25T07:39:50.407Z,4.47
2019-04-25T07:42:16.431Z,3.60
2019-04-25T07:44:52.051Z,3.27
2019-04-25T07:47:10.407Z,2.20
2019-04-25T07:49:36.441Z,2.27
2019-04-25T07:52:03.601Z,3.03
2019-04-25T07:54:30.670Z,2.30
2019-04-25T07:56:56.937Z,2.03
2019-04-25T07:59:23.747Z,2.00
2019-04-25T08:01:50.291Z,2.87
2019-04-25T08:04:16.852Z,1.90
2019-04-25T08:06:44.302Z,1.60
2019-04-25T08:09:11.306Z,1.50
2019-04-25T08:11:38.218Z,1.83
2019-04-25T08:14:06.426Z,2.17
2019-04-25T08:16:37.261Z,1.60
2019-04-25T08:19:14.273Z,1.23
2019-04-25T08:21:40.350Z,1.23
2019-04-25T08:24:06.390Z,0.97
2019-04-25T08:26:34.812Z,0.87
2019-04-25T08:29:03.768Z,1.17
2019-04-25T08:31:34.759Z,1.13
2019-04-25T08:34:00.436Z,0.80
2019-04-25T08:36:36.673Z,0.90
2019-04-25T08:39:06.312Z,1.73
2019-04-25T08:41:31.098Z,1.07
2019-04-25T08:43:59.718Z,0.60
2019-04-25T08:46:37.203Z,0.80
2019-04-25T08:49:06.528Z,1.00
2019-04-25T08:51:44.938Z,0.70
2019-04-25T08:54:20.354Z,0.87
2019-04-25T08:56:56.698Z,0.70
2019-04-25T08:59:45.618Z,1.17
2019-04-25T09:02:32.594Z,0.77
2019-04-25T09:05:24.042Z,0.60
2019-04-25T09:07:50.619Z,0.80
2019-04-25T09:10:16.642Z,0.60
2019-04-25T09:12:44.242Z,0.90
2019-04-25T09:15:14.087Z,0.63
2019-04-25T09:17:40.213Z,0.60
2019-04-25T09:20:06.285Z,0.70
2019-04-25T09:22:35.269Z,0.80
2019-04-25T09:25:01.099Z,0.87
2019-04-25T09:27:27.467Z,0.60
2019-04-25T09:29:54.198Z,0.70
2019-04-25T09:32:20.634Z,1.00
2019-04-25T09:34:48.055Z,0.60
2019-04-25T09:37:17.605Z,0.60
2019-04-25T09:39:51.799Z,0.70
2019-04-25T09:42:17.819Z,1.10
2019-04-25T09:44:54.411Z,0.83
2019-04-25T09:47:20.428Z,0.80
2019-04-25T09:49:48.117Z,0.67
2019-04-25T09:52:16.654Z,0.83
2019-04-25T09:54:47.345Z,0.80
2019-04-25T09:57:33.452Z,1.03
2019-04-25T10:00:01.187Z,0.80
2019-04-25T10:02:27.243Z,0.90
2019-04-25T10:04:55.190Z,1.90
2019-04-25T10:07:25.278Z,1.23
2019-04-25T10:09:51.367Z,0.90
2019-04-25T10:12:17.610Z,1.10
2019-04-25T10:14:50.300Z,0.90
2019-04-25T10:17:16.617Z,0.60
2019-04-25T10:19:43.505Z,0.90
2019-04-25T10:22:09.686Z,1.10
2019-04-25T10:24:35.696Z,1.00
2019-04-25T10:27:04.505Z,1.13
2019-04-25T10:29:41.209Z,0.80
2019-04-25T10:31:58.451Z,1.10
2019-04-25T10:34:24.572Z,0.90
2019-04-25T10:36:50.681Z,0.80
2019-04-25T10:39:16.820Z,0.70
2019-04-25T10:41:46.109Z,1.00
2019-04-25T10:44:25.368Z,1.00
2019-04-25T10:46:51.435Z,1.30
2019-04-25T10:49:18.463Z,1.10
2019-04-25T10:51:45.693Z,0.90
2019-04-25T10:54:14.414Z,1.10
2019-04-25T10:56:41.713Z,0.90
2019-04-25T10:59:07.799Z,1.07
2019-04-25T11:01:33.986Z,1.20
2019-04-25T11:04:01.993Z,0.80
2019-04-25T11:06:28.005Z,0.80
2019-04-25T11:08:56.457Z,1.02
2019-04-25T11:11:24.122Z,1.00
2019-04-25T11:13:50.356Z,1.02
2019-04-25T11:16:16.492Z,0.95
2019-04-25T11:18:44.177Z,1.52
2019-04-25T11:21:13.816Z,1.00
2019-04-25T11:23:40.524Z,0.90
2019-04-25T11:26:07.476Z,1.20
2019-04-25T11:28:33.883Z,1.60
2019-04-25T11:31:02.048Z,1.30
2019-04-25T11:33:28.416Z,0.90
2019-04-25T11:35:56.321Z,0.90
2019-04-25T11:38:42.670Z,1.43
2019-04-25T11:41:11.417Z,1.07
2019-04-25T11:43:37.454Z,1.67
2019-04-25T11:46:04.885Z,1.00
2019-04-25T11:48:31.389Z,0.83
2019-04-25T11:50:57.410Z,0.90
2019-04-25T11:53:24.963Z,0.90
2019-04-25T11:55:51.460Z,1.30
2019-04-25T11:58:18.199Z,1.37
2019-04-25T12:00:45.115Z,0.93
2019-04-25T12:03:12.136Z,0.53
2019-04-25T12:05:38.194Z,0.97
2019-04-25T12:08:04.738Z,1.10
2019-04-25T12:10:31.823Z,0.63
2019-04-25T12:12:57.929Z,0.60
2019-04-25T12:15:24.731Z,0.50
2019-04-25T12:17:51.606Z,0.87
2019-04-25T12:20:17.685Z,0.50
2019-04-25T12:22:45.392Z,0.63
2019-04-25T12:25:13.621Z,0.60
2019-04-25T12:27:39.982Z,0.60
2019-04-25T12:30:06.262Z,0.60
2019-04-25T12:32:35.067Z,0.50
2019-04-25T12:35:00.178Z,0.90
2019-04-25T12:37:26.291Z,0.50
2019-04-25T12:39:52.320Z,0.87
2019-04-25T12:42:18.341Z,0.67
2019-04-25T12:47:24.009Z,0.47
2019-04-25T12:49:50.651Z,0.95
2019-04-25T12:52:16.835Z,0.80
2019-04-25T12:54:44.069Z,0.72
2019-04-25T12:57:14.067Z,0.70
2019-04-25T12:59:40.275Z,0.53
2019-04-25T13:02:06.297Z,1.32
2019-04-25T13:04:33.193Z,0.72
2019-04-25T13:07:00.311Z,0.70
2019-04-25T13:09:28.356Z,0.98
2019-04-25T13:11:55.308Z,0.60
2019-04-25T13:14:21.327Z,0.60
2019-04-25T13:16:47.477Z,1.00
2019-04-25T13:19:21.774Z,0.80
2019-04-25T13:21:43.194Z,0.80
2019-04-25T13:24:10.454Z,0.80
2019-04-25T13:26:38.516Z,0.60
2019-04-25T13:29:24.723Z,0.82
2019-04-25T13:31:53.166Z,0.82
2019-04-25T13:34:22.381Z,1.05
2019-04-25T13:36:49.160Z,3.33
2019-04-25T13:39:16.819Z,1.22
2019-04-25T13:41:43.075Z,0.90
2019-04-25T13:44:10.655Z,0.90
2019-04-25T13:46:37.192Z,0.57
2019-04-25T13:49:04.253Z,0.82
2019-04-25T13:51:30.816Z,0.40
2019-04-25T13:53:57.616Z,0.90
2019-04-25T13:56:25.883Z,0.80
2019-04-25T13:58:51.639Z,0.65
2019-04-25T14:01:18.355Z,0.60
2019-04-25T14:03:44.473Z,0.82
2019-04-25T14:06:10.615Z,0.57
2019-04-25T14:08:36.670Z,0.78
2019-04-25T14:11:04.942Z,0.70
2019-04-25T14:13:32.201Z,0.60
2019-04-25T14:16:00.809Z,0.95
2019-04-25T14:18:34.651Z,0.90
2019-04-25T14:21:03.492Z,0.85
2019-04-25T14:23:29.631Z,0.65
2019-04-25T14:25:55.695Z,0.80
2019-04-25T14:28:21.946Z,0.65
2019-04-25T14:30:48.245Z,2.27
2019-04-25T14:33:14.259Z,0.50
2019-04-25T14:35:40.269Z,0.50
2019-04-25T14:38:07.029Z,1.45
2019-04-25T14:40:33.278Z,1.00
2019-04-25T14:42:59.464Z,1.98
2019-04-25T14:45:26.450Z,2.95
2019-04-25T14:47:52.864Z,0.90
2019-04-25T14:50:18.875Z,0.70
2019-04-25T14:52:45.080Z,0.57
2019-04-25T14:55:23.558Z,0.62
2019-04-25T14:57:49.811Z,0.40
2019-04-25T15:00:23.988Z,0.50
2019-04-25T15:02:50.184Z,2.72
2019-04-25T15:05:16.276Z,0.90
2019-04-25T15:07:43.008Z,0.90
2019-04-25T15:10:09.279Z,0.75
2019-04-25T15:12:35.411Z,0.70
2019-04-25T15:15:07.516Z,0.50
2019-04-25T15:17:43.849Z,0.70
2019-04-25T15:20:03.882Z,0.60
2019-04-25T15:22:30.542Z,0.70
2019-04-25T15:24:58.673Z,1.50
2019-04-25T15:27:25.114Z,0.70
2019-04-25T15:29:59.301Z,0.75
2019-04-25T15:32:27.486Z,0.80
2019-04-25T15:34:55.596Z,1.00
2019-04-25T15:37:23.672Z,0.95
2019-04-25T15:39:59.876Z,0.60
2019-04-25T15:42:45.727Z,0.62
2019-04-25T15:45:13.679Z,0.85
2019-04-25T15:47:39.739Z,0.80
2019-04-25T15:50:06.064Z,0.80
2019-04-25T15:52:32.112Z,0.53
2019-04-25T15:55:06.884Z,0.50
2019-04-25T15:57:26.028Z,0.60
2019-04-25T15:59:52.196Z,1.10
2019-04-25T16:02:18.618Z,1.45
2019-04-25T16:04:46.597Z,0.55
2019-04-25T16:07:13.356Z,0.50
2019-04-25T16:09:39.367Z,1.00
2019-04-25T16:12:06.579Z,0.70
2019-04-25T16:14:33.387Z,0.88
2019-04-25T16:17:00.038Z,0.57
2019-04-25T16:19:26.051Z,0.80
2019-04-25T16:21:52.248Z,0.65
2019-04-25T16:24:18.275Z,0.90
2019-04-25T16:26:47.824Z,1.17
2019-04-25T16:29:13.873Z,0.72
2019-04-25T16:31:39.905Z,0.57
2019-04-25T16:34:05.923Z,0.93
2019-04-25T16:36:32.496Z,2.02
2019-04-25T16:38:58.613Z,0.80
2019-04-25T16:41:24.627Z,1.57
2019-04-25T16:43:52.975Z,1.30
2019-04-25T16:46:20.497Z,2.75
2019-04-25T16:48:46.623Z,1.30
2019-04-25T16:51:13.059Z,0.70
2019-04-25T16:53:42.274Z,0.90
2019-04-25T16:56:08.846Z,2.17
2019-04-25T16:58:34.900Z,0.80
2019-04-25T17:01:02.811Z,0.83
2019-04-25T17:03:30.107Z,1.20
2019-04-25T17:05:58.331Z,4.93
2019-04-25T17:08:24.347Z,1.43
2019-04-25T17:10:50.359Z,2.23
2019-04-25T17:13:16.665Z,1.40
2019-04-25T17:16:02.997Z,1.40
2019-04-25T17:18:31.925Z,2.77
2019-04-25T17:20:59.969Z,0.90
2019-04-25T17:23:26.012Z,1.07
2019-04-25T17:25:52.056Z,0.90
2019-04-25T17:28:18.443Z,0.90
2019-04-25T17:30:46.355Z,0.60
2019-04-25T17:33:17.128Z,0.90
2019-04-25T17:36:00.214Z,0.70
2019-04-25T17:38:44.703Z,0.93
2019-04-25T17:41:10.728Z,0.90
2019-04-25T17:43:36.739Z,0.67
2019-04-25T17:46:04.334Z,1.23
2019-04-25T17:48:30.452Z,1.07
2019-04-25T17:50:56.467Z,0.80
2019-04-25T17:53:22.595Z,0.90
2019-04-25T17:55:48.604Z,1.07
2019-04-25T17:58:14.623Z,1.50
2019-04-25T18:00:44.968Z,1.00
2019-04-25T18:03:11.423Z,1.20
2019-04-25T18:05:49.590Z,1.27
2019-04-25T18:08:15.592Z,1.37
2019-04-25T18:10:41.998Z,1.10
2019-04-25T18:13:09.550Z,1.00
2019-04-25T18:15:50.299Z,1.17
2019-04-25T18:18:18.420Z,1.10
2019-04-25T18:20:48.302Z,1.00
2019-04-25T18:23:24.832Z,1.30
2019-04-25T18:26:01.627Z,1.10
2019-04-25T18:28:32.391Z,1.10
2019-04-25T18:30:59.107Z,1.73
2019-04-25T18:33:32.816Z,1.60
2019-04-25T18:36:14.179Z,2.87
2019-04-25T18:38:44.629Z,1.13
2019-04-25T18:41:32.358Z,1.17
2019-04-25T18:44:00.273Z,1.30
2019-04-25T18:46:28.207Z,0.97
2019-04-25T18:48:54.274Z,1.17
2019-04-25T18:51:22.239Z,1.10
2019-04-25T18:53:52.649Z,1.07
2019-04-25T18:56:43.831Z,1.10
2019-04-25T18:59:19.603Z,1.37
2019-04-25T19:02:06.804Z,3.27
2019-04-25T19:04:42.949Z,2.13
2019-04-25T19:07:22.424Z,2.97
2019-04-25T19:09:54.646Z,2.97
2019-04-25T19:12:29.116Z,3.00
2019-04-25T19:14:55.407Z,3.00
2019-04-25T19:17:23.440Z,2.30
2019-04-25T19:19:49.555Z,2.20
2019-04-25T19:22:16.286Z,1.80
2019-04-25T19:24:44.976Z,2.57
2019-04-25T19:27:10.316Z,2.03
2019-04-25T19:29:36.359Z,2.47
2019-04-25T19:32:02.490Z,2.03
2019-04-25T19:34:28.707Z,2.83
2019-04-25T19:36:54.732Z,1.90
2019-04-25T19:39:22.638Z,2.00
2019-04-25T19:42:07.511Z,1.57
2019-04-25T19:44:33.545Z,1.17
2019-04-25T19:46:59.586Z,1.20
2019-04-25T19:49:25.598Z,1.40
2019-04-25T19:51:54.224Z,2.27
2019-04-25T19:54:31.926Z,1.53
2019-04-25T19:57:10.068Z,2.20
2019-04-25T19:59:36.155Z,4.00
2019-04-25T20:02:04.460Z,2.00
2019-04-25T20:04:35.159Z,4.10
2019-04-25T20:07:09.010Z,3.90
2019-04-25T20:09:55.879Z,4.80
2019-04-25T20:12:33.379Z,3.00
2019-04-25T20:14:59.412Z,2.83
2019-04-25T20:17:25.443Z,2.83
2019-04-25T20:19:51.864Z,2.93
2019-04-25T20:22:18.055Z,2.30
2019-04-25T20:24:45.334Z,2.03
2019-04-25T20:27:12.260Z,1.73
2019-04-25T20:29:38.303Z,1.50
2019-04-25T20:32:07.310Z,1.30
2019-04-25T20:34:33.604Z,1.43
2019-04-25T20:36:59.622Z,1.20
2019-04-25T20:39:27.757Z,2.07
2019-04-25T20:41:53.961Z,1.40
2019-04-25T20:44:20.025Z,1.17
2019-04-25T20:46:46.740Z,1.30
2019-04-25T20:49:12.945Z,1.27
2019-04-25T20:51:39.294Z,1.30
2019-04-25T20:54:05.319Z,1.20
2019-04-25T20:56:31.471Z,1.30
2019-04-25T20:58:57.710Z,1.47
2019-04-25T21:01:23.808Z,1.43
2019-04-25T21:03:49.898Z,1.17
2019-04-25T21:06:17.904Z,1.60
2019-04-25T21:08:49.018Z,1.20
2019-04-25T21:11:16.180Z,1.40
2019-04-25T21:13:44.948Z,1.30
2019-04-25T21:16:31.924Z,0.90
2019-04-25T21:19:02.035Z,0.97
2019-04-25T21:21:27.863Z,1.30
2019-04-25T21:23:54.883Z,1.00
2019-04-25T21:26:22.931Z,1.10
2019-04-25T21:28:50.179Z,1.00
2019-04-25T21:31:17.159Z,0.73
2019-04-25T21:33:43.294Z,1.00
2019-04-25T21:36:09.518Z,1.30
2019-04-25T21:38:35.959Z,1.07
2019-04-25T21:41:09.939Z,1.20
2019-04-25T21:43:38.291Z,0.87
2019-04-25T21:46:04.614Z,1.23
2019-04-25T21:48:31.475Z,0.77
2019-04-25T21:51:01.002Z,0.90
2019-04-25T21:53:27.199Z,0.90
2019-04-25T21:55:53.416Z,1.00
2019-04-25T21:58:20.743Z,1.07
2019-04-25T22:00:49.887Z,0.87
2019-04-25T22:03:18.007Z,1.00
2019-04-25T22:05:44.727Z,1.13
2019-04-25T22:08:11.129Z,0.77
2019-04-25T22:10:37.651Z,0.90
2019-04-25T22:13:11.963Z,0.80
2019-04-25T22:15:31.875Z,1.00
2019-04-25T22:17:58.193Z,1.20
2019-04-25T22:20:24.381Z,1.10
2019-04-25T22:22:50.428Z,1.13
2019-04-25T22:25:16.456Z,0.90
2019-04-25T22:27:44.129Z,0.90
2019-04-25T22:30:12.547Z,1.10
2019-04-25T22:32:40.788Z,1.10
2019-04-25T22:35:08.830Z,1.13
2019-04-25T22:37:35.114Z,1.00
2019-04-25T22:40:01.419Z,3.57
2019-04-25T22:42:28.375Z,1.17
2019-04-25T22:44:54.380Z,13.63
2019-04-25T22:47:20.703Z,1.00
2019-04-25T22:49:46.731Z,1.03
2019-04-25T22:52:13.211Z,1.20
2019-04-25T22:54:39.690Z,1.10
2019-04-25T22:57:06.383Z,1.20
2019-04-25T22:59:32.811Z,0.90
2019-04-25T23:02:16.042Z,1.10
2019-04-25T23:04:49.860Z,1.00
2019-04-25T23:07:16.975Z,1.03
2019-04-25T23:09:43.299Z,0.87
2019-04-25T23:12:10.591Z,0.90
2019-04-25T23:14:37.179Z,0.90
2019-04-25T23:17:03.717Z,0.93
2019-04-25T23:19:30.223Z,1.00
2019-04-25T23:21:56.236Z,1.07
2019-04-25T23:24:24.184Z,0.93
2019-04-25T23:26:53.744Z,0.93
2019-04-25T23:29:20.460Z,0.77
2019-04-25T23:31:46.515Z,1.10
2019-04-25T23:34:12.874Z,0.80
2019-04-25T23:36:38.931Z,0.90
2019-04-25T23:39:07.254Z,0.87
2019-04-25T23:41:33.644Z,1.23
2019-04-25T23:44:00.528Z,1.00
2019-04-25T23:46:27.056Z,1.23
2019-04-25T23:48:53.105Z,0.90
2019-04-25T23:51:19.118Z,0.80
2019-04-25T23:53:45.659Z,1.03
2019-04-25T23:56:11.681Z,1.23
2019-04-25T23:58:38.000Z,0.93
